sensor_id;sensor_type;location;lat;lon;timestamp;P1;durP1;ratioP1;P2;durP2;ratioP2
36931;SDS011;22847;42.654;23.370;2022-08-21T00:00:38;15.75;;;10.18;;
36931;SDS011;22847;42.654;23.370;2022-08-21T00:03:05;18.60;;;10.15;;
36931;SDS011;22847;42.654;23.370;2022-08-21T00:05:35;13.73;;;9.32;;
36931;SDS011;22847;42.654;23.370;2022-08-21T00:08:03;18.63;;;10.77;;
36931;SDS011;22847;42.654;23.370;2022-08-21T00:10:29;14.82;;;9.65;;
36931;SDS011;22847;42.654;23.370;2022-08-21T00:12:54;18.30;;;10.65;;
36931;SDS011;22847;42.654;23.370;2022-08-21T00:15:22;18.33;;;10.90;;
36931;SDS011;22847;42.654;23.370;2022-08-21T00:17:54;16.17;;;10.50;;
36931;SDS011;22847;42.654;23.370;2022-08-21T00:20:21;16.75;;;9.50;;
36931;SDS011;22847;42.654;23.370;2022-08-21T00:22:47;17.65;;;9.88;;
36931;SDS011;22847;42.654;23.370;2022-08-21T00:25:13;16.02;;;9.88;;
36931;SDS011;22847;42.654;23.370;2022-08-21T00:27:40;16.17;;;9.85;;
36931;SDS011;22847;42.654;23.370;2022-08-21T00:30:11;14.32;;;9.63;;
36931;SDS011;22847;42.654;23.370;2022-08-21T00:32:46;13.82;;;9.77;;
36931;SDS011;22847;42.654;23.370;2022-08-21T00:35:14;16.30;;;8.77;;
36931;SDS011;22847;42.654;23.370;2022-08-21T00:37:40;13.38;;;9.13;;
36931;SDS011;22847;42.654;23.370;2022-08-21T00:40:07;13.45;;;8.55;;
36931;SDS011;22847;42.654;23.370;2022-08-21T00:42:36;17.30;;;9.68;;
36931;SDS011;22847;42.654;23.370;2022-08-21T00:45:02;15.50;;;8.60;;
36931;SDS011;22847;42.654;23.370;2022-08-21T00:47:30;19.25;;;8.85;;
36931;SDS011;22847;42.654;23.370;2022-08-21T00:49:55;18.70;;;8.55;;
36931;SDS011;22847;42.654;23.370;2022-08-21T00:52:22;13.63;;;8.27;;
36931;SDS011;22847;42.654;23.370;2022-08-21T00:54:55;15.90;;;8.90;;
36931;SDS011;22847;42.654;23.370;2022-08-21T00:57:26;13.50;;;7.70;;
36931;SDS011;22847;42.654;23.370;2022-08-21T00:59:59;15.65;;;8.98;;
36931;SDS011;22847;42.654;23.370;2022-08-21T01:02:28;19.95;;;9.88;;
36931;SDS011;22847;42.654;23.370;2022-08-21T01:04:54;17.85;;;10.13;;
36931;SDS011;22847;42.654;23.370;2022-08-21T01:07:19;19.08;;;10.23;;
36931;SDS011;22847;42.654;23.370;2022-08-21T01:09:48;21.48;;;10.75;;
36931;SDS011;22847;42.654;23.370;2022-08-21T01:12:13;16.02;;;10.27;;
36931;SDS011;22847;42.654;23.370;2022-08-21T01:14:40;23.88;;;10.05;;
36931;SDS011;22847;42.654;23.370;2022-08-21T01:17:08;18.98;;;9.75;;
36931;SDS011;22847;42.654;23.370;2022-08-21T01:19:35;15.68;;;9.00;;
36931;SDS011;22847;42.654;23.370;2022-08-21T01:22:01;19.33;;;9.93;;
36931;SDS011;22847;42.654;23.370;2022-08-21T01:24:27;13.13;;;8.55;;
36931;SDS011;22847;42.654;23.370;2022-08-21T01:26:52;19.20;;;9.88;;
36931;SDS011;22847;42.654;23.370;2022-08-21T01:29:36;17.30;;;9.20;;
36931;SDS011;22847;42.654;23.370;2022-08-21T01:32:08;16.45;;;9.68;;
36931;SDS011;22847;42.654;23.370;2022-08-21T01:34:37;17.77;;;9.60;;
36931;SDS011;22847;42.654;23.370;2022-08-21T01:37:06;23.20;;;11.75;;
36931;SDS011;22847;42.654;23.370;2022-08-21T01:39:31;21.90;;;12.73;;
36931;SDS011;22847;42.654;23.370;2022-08-21T01:41:57;27.30;;;13.90;;
36931;SDS011;22847;42.654;23.370;2022-08-21T01:44:24;23.50;;;12.75;;
36931;SDS011;22847;42.654;23.370;2022-08-21T01:46:50;24.25;;;12.40;;
36931;SDS011;22847;42.654;23.370;2022-08-21T01:49:16;22.05;;;12.73;;
36931;SDS011;22847;42.654;23.370;2022-08-21T01:51:42;19.63;;;11.65;;
36931;SDS011;22847;42.654;23.370;2022-08-21T01:54:08;23.55;;;13.40;;
36931;SDS011;22847;42.654;23.370;2022-08-21T01:56:41;22.42;;;13.40;;
36931;SDS011;22847;42.654;23.370;2022-08-21T01:59:10;21.77;;;13.02;;
36931;SDS011;22847;42.654;23.370;2022-08-21T02:01:36;20.48;;;12.75;;
36931;SDS011;22847;42.654;23.370;2022-08-21T02:04:02;23.40;;;13.98;;
36931;SDS011;22847;42.654;23.370;2022-08-21T02:06:28;23.85;;;14.18;;
36931;SDS011;22847;42.654;23.370;2022-08-21T02:08:53;28.60;;;14.07;;
36931;SDS011;22847;42.654;23.370;2022-08-21T02:11:19;29.40;;;14.52;;
36931;SDS011;22847;42.654;23.370;2022-08-21T02:13:45;24.58;;;14.05;;
36931;SDS011;22847;42.654;23.370;2022-08-21T02:16:11;24.50;;;12.63;;
36931;SDS011;22847;42.654;23.370;2022-08-21T02:18:37;22.23;;;13.63;;
36931;SDS011;22847;42.654;23.370;2022-08-21T02:21:03;20.15;;;13.25;;
36931;SDS011;22847;42.654;23.370;2022-08-21T02:23:29;25.05;;;13.68;;
36931;SDS011;22847;42.654;23.370;2022-08-21T02:25:56;20.85;;;11.68;;
36931;SDS011;22847;42.654;23.370;2022-08-21T02:28:22;25.30;;;11.77;;
36931;SDS011;22847;42.654;23.370;2022-08-21T02:30:48;21.98;;;12.70;;
36931;SDS011;22847;42.654;23.370;2022-08-21T02:33:14;18.65;;;11.35;;
36931;SDS011;22847;42.654;23.370;2022-08-21T02:35:40;22.40;;;11.25;;
36931;SDS011;22847;42.654;23.370;2022-08-21T02:38:09;20.45;;;11.75;;
36931;SDS011;22847;42.654;23.370;2022-08-21T02:40:37;25.00;;;12.35;;
36931;SDS011;22847;42.654;23.370;2022-08-21T02:43:04;25.95;;;12.35;;
36931;SDS011;22847;42.654;23.370;2022-08-21T02:45:30;28.80;;;12.95;;
36931;SDS011;22847;42.654;23.370;2022-08-21T02:48:08;18.42;;;11.80;;
36931;SDS011;22847;42.654;23.370;2022-08-21T02:50:37;21.85;;;11.38;;
36931;SDS011;22847;42.654;23.370;2022-08-21T02:53:05;20.65;;;11.10;;
36931;SDS011;22847;42.654;23.370;2022-08-21T02:55:32;19.90;;;9.90;;
36931;SDS011;22847;42.654;23.370;2022-08-21T02:58:00;15.43;;;8.98;;
36931;SDS011;22847;42.654;23.370;2022-08-21T03:00:27;18.88;;;8.93;;
36931;SDS011;22847;42.654;23.370;2022-08-21T03:02:54;23.67;;;8.98;;
36931;SDS011;22847;42.654;23.370;2022-08-21T03:05:21;18.70;;;8.05;;
36931;SDS011;22847;42.654;23.370;2022-08-21T03:07:48;14.82;;;7.82;;
36931;SDS011;22847;42.654;23.370;2022-08-21T03:10:13;15.80;;;7.10;;
36931;SDS011;22847;42.654;23.370;2022-08-21T03:12:40;15.98;;;6.85;;
36931;SDS011;22847;42.654;23.370;2022-08-21T03:15:07;17.17;;;7.10;;
36931;SDS011;22847;42.654;23.370;2022-08-21T03:17:34;17.70;;;7.03;;
36931;SDS011;22847;42.654;23.370;2022-08-21T03:20:00;14.30;;;5.93;;
36931;SDS011;22847;42.654;23.370;2022-08-21T03:22:26;9.23;;;5.10;;
36931;SDS011;22847;42.654;23.370;2022-08-21T03:24:52;14.13;;;5.13;;
36931;SDS011;22847;42.654;23.370;2022-08-21T03:27:18;11.88;;;5.00;;
36931;SDS011;22847;42.654;23.370;2022-08-21T03:29:44;10.05;;;5.47;;
36931;SDS011;22847;42.654;23.370;2022-08-21T03:32:09;11.20;;;5.03;;
36931;SDS011;22847;42.654;23.370;2022-08-21T03:34:36;11.05;;;5.30;;
36931;SDS011;22847;42.654;23.370;2022-08-21T03:37:02;10.73;;;4.95;;
36931;SDS011;22847;42.654;23.370;2022-08-21T03:39:29;8.98;;;4.55;;
36931;SDS011;22847;42.654;23.370;2022-08-21T03:41:54;10.43;;;4.38;;
36931;SDS011;22847;42.654;23.370;2022-08-21T03:44:20;12.45;;;4.25;;
36931;SDS011;22847;42.654;23.370;2022-08-21T03:46:45;8.88;;;4.97;;
36931;SDS011;22847;42.654;23.370;2022-08-21T03:49:11;10.23;;;4.68;;
36931;SDS011;22847;42.654;23.370;2022-08-21T03:51:37;10.05;;;4.63;;
36931;SDS011;22847;42.654;23.370;2022-08-21T03:54:03;11.00;;;5.20;;
36931;SDS011;22847;42.654;23.370;2022-08-21T03:56:28;17.58;;;4.72;;
36931;SDS011;22847;42.654;23.370;2022-08-21T03:58:54;11.55;;;4.97;;
36931;SDS011;22847;42.654;23.370;2022-08-21T04:01:20;16.80;;;7.55;;
36931;SDS011;22847;42.654;23.370;2022-08-21T04:03:46;13.32;;;6.03;;
36931;SDS011;22847;42.654;23.370;2022-08-21T04:06:11;17.75;;;7.00;;
36931;SDS011;22847;42.654;23.370;2022-08-21T04:08:37;15.40;;;7.55;;
36931;SDS011;22847;42.654;23.370;2022-08-21T04:11:03;13.05;;;6.75;;
36931;SDS011;22847;42.654;23.370;2022-08-21T04:13:29;12.90;;;7.43;;
36931;SDS011;22847;42.654;23.370;2022-08-21T04:15:55;12.07;;;8.02;;
36931;SDS011;22847;42.654;23.370;2022-08-21T04:18:23;15.65;;;8.73;;
36931;SDS011;22847;42.654;23.370;2022-08-21T04:20:49;16.05;;;7.13;;
36931;SDS011;22847;42.654;23.370;2022-08-21T04:23:18;15.35;;;8.25;;
36931;SDS011;22847;42.654;23.370;2022-08-21T04:25:44;16.60;;;7.18;;
36931;SDS011;22847;42.654;23.370;2022-08-21T04:28:09;14.60;;;7.70;;
36931;SDS011;22847;42.654;23.370;2022-08-21T04:30:35;13.73;;;6.45;;
36931;SDS011;22847;42.654;23.370;2022-08-21T04:33:00;13.05;;;7.05;;
36931;SDS011;22847;42.654;23.370;2022-08-21T04:35:27;13.82;;;7.47;;
36931;SDS011;22847;42.654;23.370;2022-08-21T04:37:53;15.20;;;6.63;;
36931;SDS011;22847;42.654;23.370;2022-08-21T04:40:19;16.80;;;6.82;;
36931;SDS011;22847;42.654;23.370;2022-08-21T04:42:47;16.38;;;7.72;;
36931;SDS011;22847;42.654;23.370;2022-08-21T04:45:19;18.05;;;8.30;;
36931;SDS011;22847;42.654;23.370;2022-08-21T04:47:54;12.05;;;7.63;;
36931;SDS011;22847;42.654;23.370;2022-08-21T04:50:25;16.02;;;7.00;;
36931;SDS011;22847;42.654;23.370;2022-08-21T04:52:55;10.50;;;4.80;;
36931;SDS011;22847;42.654;23.370;2022-08-21T04:55:21;13.80;;;7.10;;
36931;SDS011;22847;42.654;23.370;2022-08-21T04:57:48;13.73;;;6.57;;
36931;SDS011;22847;42.654;23.370;2022-08-21T05:00:16;10.35;;;5.40;;
36931;SDS011;22847;42.654;23.370;2022-08-21T05:02:43;13.15;;;5.60;;
36931;SDS011;22847;42.654;23.370;2022-08-21T05:05:10;8.90;;;5.20;;
36931;SDS011;22847;42.654;23.370;2022-08-21T05:07:36;10.73;;;4.15;;
36931;SDS011;22847;42.654;23.370;2022-08-21T05:10:02;11.10;;;4.70;;
36931;SDS011;22847;42.654;23.370;2022-08-21T05:12:30;11.35;;;3.90;;
36931;SDS011;22847;42.654;23.370;2022-08-21T05:14:56;5.60;;;3.33;;
36931;SDS011;22847;42.654;23.370;2022-08-21T05:17:22;8.57;;;3.35;;
36931;SDS011;22847;42.654;23.370;2022-08-21T05:19:48;7.72;;;3.58;;
36931;SDS011;22847;42.654;23.370;2022-08-21T05:22:20;6.72;;;3.85;;
36931;SDS011;22847;42.654;23.370;2022-08-21T05:24:49;10.60;;;4.53;;
36931;SDS011;22847;42.654;23.370;2022-08-21T05:27:15;10.48;;;4.07;;
36931;SDS011;22847;42.654;23.370;2022-08-21T05:29:41;8.23;;;4.05;;
36931;SDS011;22847;42.654;23.370;2022-08-21T05:32:10;8.15;;;3.70;;
36931;SDS011;22847;42.654;23.370;2022-08-21T05:34:38;9.50;;;3.67;;
36931;SDS011;22847;42.654;23.370;2022-08-21T05:37:04;9.77;;;3.40;;
36931;SDS011;22847;42.654;23.370;2022-08-21T05:39:30;15.18;;;5.35;;
36931;SDS011;22847;42.654;23.370;2022-08-21T05:41:56;12.25;;;5.07;;
36931;SDS011;22847;42.654;23.370;2022-08-21T05:44:21;10.82;;;4.72;;
36931;SDS011;22847;42.654;23.370;2022-08-21T05:46:47;7.25;;;4.00;;
36931;SDS011;22847;42.654;23.370;2022-08-21T05:49:12;15.27;;;6.28;;
36931;SDS011;22847;42.654;23.370;2022-08-21T05:51:39;9.40;;;5.32;;
36931;SDS011;22847;42.654;23.370;2022-08-21T05:54:05;14.63;;;5.68;;
36931;SDS011;22847;42.654;23.370;2022-08-21T05:56:31;10.82;;;6.60;;
36931;SDS011;22847;42.654;23.370;2022-08-21T05:58:56;11.23;;;5.68;;
36931;SDS011;22847;42.654;23.370;2022-08-21T06:01:22;13.68;;;6.63;;
36931;SDS011;22847;42.654;23.370;2022-08-21T06:03:48;10.48;;;6.53;;
36931;SDS011;22847;42.654;23.370;2022-08-21T06:06:14;11.38;;;6.18;;
36931;SDS011;22847;42.654;23.370;2022-08-21T06:08:39;11.10;;;6.32;;
36931;SDS011;22847;42.654;23.370;2022-08-21T06:11:05;13.30;;;7.72;;
36931;SDS011;22847;42.654;23.370;2022-08-21T06:13:31;12.93;;;6.75;;
36931;SDS011;22847;42.654;23.370;2022-08-21T06:16:15;12.63;;;6.20;;
36931;SDS011;22847;42.654;23.370;2022-08-21T06:18:42;13.38;;;6.78;;
36931;SDS011;22847;42.654;23.370;2022-08-21T06:21:09;12.50;;;7.20;;
36931;SDS011;22847;42.654;23.370;2022-08-21T06:23:36;12.85;;;6.70;;
36931;SDS011;22847;42.654;23.370;2022-08-21T06:26:02;12.15;;;7.35;;
36931;SDS011;22847;42.654;23.370;2022-08-21T06:28:30;15.93;;;7.63;;
36931;SDS011;22847;42.654;23.370;2022-08-21T06:30:55;10.82;;;6.55;;
36931;SDS011;22847;42.654;23.370;2022-08-21T06:33:21;11.02;;;6.07;;
36931;SDS011;22847;42.654;23.370;2022-08-21T06:35:46;18.80;;;7.38;;
36931;SDS011;22847;42.654;23.370;2022-08-21T06:38:12;16.77;;;7.28;;
36931;SDS011;22847;42.654;23.370;2022-08-21T06:40:37;15.95;;;7.55;;
36931;SDS011;22847;42.654;23.370;2022-08-21T06:43:10;14.35;;;7.50;;
36931;SDS011;22847;42.654;23.370;2022-08-21T06:45:38;13.07;;;6.45;;
36931;SDS011;22847;42.654;23.370;2022-08-21T06:48:03;10.57;;;6.30;;
36931;SDS011;22847;42.654;23.370;2022-08-21T06:50:30;13.35;;;6.88;;
36931;SDS011;22847;42.654;23.370;2022-08-21T06:53:06;12.32;;;6.60;;
36931;SDS011;22847;42.654;23.370;2022-08-21T06:55:34;11.30;;;5.65;;
36931;SDS011;22847;42.654;23.370;2022-08-21T06:58:01;11.90;;;5.60;;
36931;SDS011;22847;42.654;23.370;2022-08-21T07:00:29;12.98;;;5.85;;
36931;SDS011;22847;42.654;23.370;2022-08-21T07:02:54;16.33;;;5.90;;
36931;SDS011;22847;42.654;23.370;2022-08-21T07:05:20;10.45;;;5.28;;
36931;SDS011;22847;42.654;23.370;2022-08-21T07:07:47;11.35;;;4.68;;
36931;SDS011;22847;42.654;23.370;2022-08-21T07:10:13;14.73;;;5.38;;
36931;SDS011;22847;42.654;23.370;2022-08-21T07:12:39;10.38;;;5.63;;
36931;SDS011;22847;42.654;23.370;2022-08-21T07:15:05;8.48;;;6.20;;
36931;SDS011;22847;42.654;23.370;2022-08-21T07:17:31;11.25;;;5.47;;
36931;SDS011;22847;42.654;23.370;2022-08-21T07:19:56;11.38;;;5.38;;
36931;SDS011;22847;42.654;23.370;2022-08-21T07:22:23;9.77;;;5.45;;
36931;SDS011;22847;42.654;23.370;2022-08-21T07:24:48;12.75;;;5.50;;
36931;SDS011;22847;42.654;23.370;2022-08-21T07:27:14;9.82;;;5.60;;
36931;SDS011;22847;42.654;23.370;2022-08-21T07:29:39;12.50;;;6.35;;
36931;SDS011;22847;42.654;23.370;2022-08-21T07:32:04;11.32;;;6.10;;
36931;SDS011;22847;42.654;23.370;2022-08-21T07:34:30;12.15;;;6.32;;
36931;SDS011;22847;42.654;23.370;2022-08-21T07:36:56;10.18;;;5.90;;
36931;SDS011;22847;42.654;23.370;2022-08-21T07:39:23;15.73;;;5.97;;
36931;SDS011;22847;42.654;23.370;2022-08-21T07:41:49;11.45;;;5.72;;
36931;SDS011;22847;42.654;23.370;2022-08-21T07:44:14;12.02;;;6.97;;
36931;SDS011;22847;42.654;23.370;2022-08-21T07:46:40;11.90;;;6.70;;
36931;SDS011;22847;42.654;23.370;2022-08-21T07:49:05;9.43;;;5.93;;
36931;SDS011;22847;42.654;23.370;2022-08-21T07:51:31;13.88;;;5.78;;
36931;SDS011;22847;42.654;23.370;2022-08-21T07:53:59;14.98;;;6.20;;
36931;SDS011;22847;42.654;23.370;2022-08-21T07:56:26;13.25;;;5.85;;
36931;SDS011;22847;42.654;23.370;2022-08-21T07:58:52;9.10;;;5.55;;
36931;SDS011;22847;42.654;23.370;2022-08-21T08:01:18;11.27;;;5.32;;
36931;SDS011;22847;42.654;23.370;2022-08-21T08:03:44;18.60;;;5.57;;
36931;SDS011;22847;42.654;23.370;2022-08-21T08:06:10;10.75;;;5.55;;
36931;SDS011;22847;42.654;23.370;2022-08-21T08:08:40;10.93;;;5.82;;
36931;SDS011;22847;42.654;23.370;2022-08-21T08:11:06;16.77;;;6.95;;
36931;SDS011;22847;42.654;23.370;2022-08-21T08:13:41;19.65;;;9.10;;
36931;SDS011;22847;42.654;23.370;2022-08-21T08:16:14;16.50;;;8.52;;
36931;SDS011;22847;42.654;23.370;2022-08-21T08:18:40;15.20;;;8.88;;
36931;SDS011;22847;42.654;23.370;2022-08-21T08:21:07;12.90;;;6.50;;
36931;SDS011;22847;42.654;23.370;2022-08-21T08:23:33;13.98;;;7.50;;
36931;SDS011;22847;42.654;23.370;2022-08-21T08:25:59;9.30;;;6.57;;
36931;SDS011;22847;42.654;23.370;2022-08-21T08:28:27;14.68;;;7.65;;
36931;SDS011;22847;42.654;23.370;2022-08-21T08:30:52;17.42;;;8.27;;
36931;SDS011;22847;42.654;23.370;2022-08-21T08:33:18;19.05;;;9.93;;
36931;SDS011;22847;42.654;23.370;2022-08-21T08:35:45;17.35;;;9.00;;
36931;SDS011;22847;42.654;23.370;2022-08-21T08:38:12;16.98;;;10.93;;
36931;SDS011;22847;42.654;23.370;2022-08-21T08:40:44;14.68;;;8.30;;
36931;SDS011;22847;42.654;23.370;2022-08-21T08:43:16;17.65;;;8.15;;
36931;SDS011;22847;42.654;23.370;2022-08-21T08:45:44;18.70;;;8.20;;
36931;SDS011;22847;42.654;23.370;2022-08-21T08:48:13;17.15;;;7.38;;
36931;SDS011;22847;42.654;23.370;2022-08-21T08:50:55;15.93;;;6.63;;
36931;SDS011;22847;42.654;23.370;2022-08-21T08:53:27;18.65;;;7.13;;
36931;SDS011;22847;42.654;23.370;2022-08-21T08:55:57;13.90;;;7.22;;
36931;SDS011;22847;42.654;23.370;2022-08-21T08:58:27;18.38;;;7.32;;
36931;SDS011;22847;42.654;23.370;2022-08-21T09:00:59;10.63;;;6.65;;
36931;SDS011;22847;42.654;23.370;2022-08-21T09:03:26;18.65;;;7.78;;
36931;SDS011;22847;42.654;23.370;2022-08-21T09:06:01;13.90;;;6.85;;
36931;SDS011;22847;42.654;23.370;2022-08-21T09:08:51;15.43;;;7.72;;
36931;SDS011;22847;42.654;23.370;2022-08-21T09:24:56;15.68;;;7.28;;
36931;SDS011;22847;42.654;23.370;2022-08-21T09:27:37;10.18;;;6.40;;
36931;SDS011;22847;42.654;23.370;2022-08-21T09:30:03;12.18;;;6.57;;
36931;SDS011;22847;42.654;23.370;2022-08-21T09:32:31;11.10;;;6.43;;
36931;SDS011;22847;42.654;23.370;2022-08-21T09:37:24;10.25;;;5.30;;
36931;SDS011;22847;42.654;23.370;2022-08-21T09:39:51;13.27;;;5.97;;
36931;SDS011;22847;42.654;23.370;2022-08-21T09:42:52;13.43;;;6.82;;
36931;SDS011;22847;42.654;23.370;2022-08-21T09:45:18;12.75;;;6.05;;
36931;SDS011;22847;42.654;23.370;2022-08-21T09:47:43;14.10;;;7.53;;
36931;SDS011;22847;42.654;23.370;2022-08-21T09:50:18;9.13;;;5.35;;
36931;SDS011;22847;42.654;23.370;2022-08-21T09:52:51;11.25;;;6.13;;
36931;SDS011;22847;42.654;23.370;2022-08-21T09:55:23;16.73;;;8.32;;
36931;SDS011;22847;42.654;23.370;2022-08-21T09:58:14;13.98;;;5.75;;
36931;SDS011;22847;42.654;23.370;2022-08-21T10:00:41;12.35;;;7.28;;
36931;SDS011;22847;42.654;23.370;2022-08-21T10:03:08;11.70;;;5.97;;
36931;SDS011;22847;42.654;23.370;2022-08-21T10:05:34;12.25;;;6.10;;
36931;SDS011;22847;42.654;23.370;2022-08-21T10:08:00;9.10;;;5.93;;
36931;SDS011;22847;42.654;23.370;2022-08-21T10:10:28;18.98;;;6.30;;
36931;SDS011;22847;42.654;23.370;2022-08-21T10:15:36;16.63;;;6.25;;
36931;SDS011;22847;42.654;23.370;2022-08-21T10:21:27;13.68;;;6.53;;
36931;SDS011;22847;42.654;23.370;2022-08-21T10:26:29;9.75;;;5.53;;
36931;SDS011;22847;42.654;23.370;2022-08-21T10:29:14;11.98;;;5.55;;
36931;SDS011;22847;42.654;23.370;2022-08-21T10:47:54;13.48;;;5.55;;
36931;SDS011;22847;42.654;23.370;2022-08-21T10:55:36;13.82;;;6.25;;
36931;SDS011;22847;42.654;23.370;2022-08-21T10:58:14;10.70;;;5.40;;
36931;SDS011;22847;42.654;23.370;2022-08-21T11:00:50;15.40;;;5.93;;
36931;SDS011;22847;42.654;23.370;2022-08-21T11:03:27;8.38;;;5.03;;
36931;SDS011;22847;42.654;23.370;2022-08-21T11:06:00;11.80;;;5.32;;
36931;SDS011;22847;42.654;23.370;2022-08-21T11:09:17;6.95;;;5.05;;
36931;SDS011;22847;42.654;23.370;2022-08-21T11:11:38;8.43;;;4.88;;
36931;SDS011;22847;42.654;23.370;2022-08-21T11:14:36;12.35;;;5.47;;
36931;SDS011;22847;42.654;23.370;2022-08-21T11:17:13;14.35;;;5.65;;
36931;SDS011;22847;42.654;23.370;2022-08-21T11:22:53;12.20;;;5.30;;
36931;SDS011;22847;42.654;23.370;2022-08-21T11:25:11;8.25;;;5.20;;
36931;SDS011;22847;42.654;23.370;2022-08-21T11:27:50;12.35;;;4.70;;
36931;SDS011;22847;42.654;23.370;2022-08-21T11:30:23;9.13;;;4.80;;
36931;SDS011;22847;42.654;23.370;2022-08-21T11:33:01;9.15;;;4.32;;
36931;SDS011;22847;42.654;23.370;2022-08-21T11:35:53;8.98;;;5.00;;
36931;SDS011;22847;42.654;23.370;2022-08-21T11:49:25;11.40;;;4.93;;
36931;SDS011;22847;42.654;23.370;2022-08-21T12:00:04;10.35;;;4.75;;
36931;SDS011;22847;42.654;23.370;2022-08-21T12:05:09;11.85;;;5.75;;
36931;SDS011;22847;42.654;23.370;2022-08-21T12:07:47;7.63;;;5.28;;
36931;SDS011;22847;42.654;23.370;2022-08-21T12:10:18;11.35;;;5.47;;
36931;SDS011;22847;42.654;23.370;2022-08-21T12:12:47;8.32;;;5.18;;
36931;SDS011;22847;42.654;23.370;2022-08-21T12:17:51;7.80;;;5.30;;
36931;SDS011;22847;42.654;23.370;2022-08-21T12:22:53;7.55;;;5.18;;
36931;SDS011;22847;42.654;23.370;2022-08-21T12:25:26;9.48;;;4.95;;
36931;SDS011;22847;42.654;23.370;2022-08-21T12:28:06;10.63;;;5.60;;
36931;SDS011;22847;42.654;23.370;2022-08-21T12:30:39;6.45;;;4.95;;
36931;SDS011;22847;42.654;23.370;2022-08-21T12:35:45;14.02;;;5.70;;
36931;SDS011;22847;42.654;23.370;2022-08-21T12:40:56;8.07;;;5.10;;
36931;SDS011;22847;42.654;23.370;2022-08-21T12:43:29;13.65;;;5.75;;
36931;SDS011;22847;42.654;23.370;2022-08-21T12:46:02;12.90;;;5.70;;
36931;SDS011;22847;42.654;23.370;2022-08-21T12:48:44;14.52;;;6.35;;
36931;SDS011;22847;42.654;23.370;2022-08-21T12:51:17;12.38;;;5.15;;
36931;SDS011;22847;42.654;23.370;2022-08-21T12:53:52;10.13;;;5.15;;
36931;SDS011;22847;42.654;23.370;2022-08-21T12:56:30;12.35;;;5.93;;
36931;SDS011;22847;42.654;23.370;2022-08-21T12:59:04;9.85;;;5.25;;
36931;SDS011;22847;42.654;23.370;2022-08-21T13:01:33;8.27;;;5.03;;
36931;SDS011;22847;42.654;23.370;2022-08-21T13:04:05;8.02;;;5.22;;
36931;SDS011;22847;42.654;23.370;2022-08-21T13:06:44;10.20;;;4.95;;
36931;SDS011;22847;42.654;23.370;2022-08-21T13:09:16;8.82;;;5.03;;
36931;SDS011;22847;42.654;23.370;2022-08-21T13:11:46;9.07;;;5.03;;
36931;SDS011;22847;42.654;23.370;2022-08-21T13:14:34;6.97;;;4.95;;
36931;SDS011;22847;42.654;23.370;2022-08-21T13:17:03;12.00;;;5.47;;
36931;SDS011;22847;42.654;23.370;2022-08-21T13:19:30;13.43;;;5.30;;
36931;SDS011;22847;42.654;23.370;2022-08-21T13:21:57;13.52;;;5.18;;
36931;SDS011;22847;42.654;23.370;2022-08-21T13:24:27;10.23;;;4.93;;
36931;SDS011;22847;42.654;23.370;2022-08-21T13:27:00;11.25;;;5.43;;
36931;SDS011;22847;42.654;23.370;2022-08-21T13:29:30;14.02;;;6.15;;
36931;SDS011;22847;42.654;23.370;2022-08-21T13:32:00;10.65;;;5.75;;
36931;SDS011;22847;42.654;23.370;2022-08-21T13:34:29;9.55;;;5.45;;
36931;SDS011;22847;42.654;23.370;2022-08-21T13:36:58;12.38;;;5.45;;
36931;SDS011;22847;42.654;23.370;2022-08-21T13:39:36;15.15;;;6.15;;
36931;SDS011;22847;42.654;23.370;2022-08-21T13:42:03;10.98;;;5.93;;
36931;SDS011;22847;42.654;23.370;2022-08-21T13:44:35;10.18;;;4.80;;
36931;SDS011;22847;42.654;23.370;2022-08-21T13:47:05;10.95;;;5.50;;
36931;SDS011;22847;42.654;23.370;2022-08-21T13:49:35;11.93;;;5.80;;
36931;SDS011;22847;42.654;23.370;2022-08-21T13:52:03;13.00;;;5.68;;
36931;SDS011;22847;42.654;23.370;2022-08-21T13:54:38;15.52;;;5.82;;
36931;SDS011;22847;42.654;23.370;2022-08-21T13:57:16;14.07;;;6.13;;
36931;SDS011;22847;42.654;23.370;2022-08-21T13:59:43;13.02;;;6.82;;
36931;SDS011;22847;42.654;23.370;2022-08-21T14:02:14;10.05;;;6.18;;
36931;SDS011;22847;42.654;23.370;2022-08-21T14:07:18;11.38;;;6.63;;
36931;SDS011;22847;42.654;23.370;2022-08-21T14:09:49;11.38;;;6.32;;
36931;SDS011;22847;42.654;23.370;2022-08-21T14:12:17;10.50;;;7.05;;
36931;SDS011;22847;42.654;23.370;2022-08-21T14:14:53;13.90;;;6.78;;
36931;SDS011;22847;42.654;23.370;2022-08-21T14:17:33;9.95;;;5.50;;
36931;SDS011;22847;42.654;23.370;2022-08-21T14:20:02;13.80;;;6.18;;
36931;SDS011;22847;42.654;23.370;2022-08-21T14:22:40;15.15;;;5.88;;
36931;SDS011;22847;42.654;23.370;2022-08-21T14:28:19;9.00;;;5.55;;
36931;SDS011;22847;42.654;23.370;2022-08-21T14:30:51;11.98;;;5.60;;
36931;SDS011;22847;42.654;23.370;2022-08-21T14:33:35;8.43;;;6.03;;
36931;SDS011;22847;42.654;23.370;2022-08-21T14:36:01;9.30;;;5.27;;
36931;SDS011;22847;42.654;23.370;2022-08-21T14:38:27;15.48;;;5.70;;
36931;SDS011;22847;42.654;23.370;2022-08-21T14:40:57;12.20;;;5.35;;
36931;SDS011;22847;42.654;23.370;2022-08-21T14:43:26;10.25;;;5.07;;
36931;SDS011;22847;42.654;23.370;2022-08-21T14:45:53;10.10;;;5.60;;
36931;SDS011;22847;42.654;23.370;2022-08-21T14:48:19;13.27;;;5.75;;
36931;SDS011;22847;42.654;23.370;2022-08-21T14:50:45;11.30;;;5.70;;
36931;SDS011;22847;42.654;23.370;2022-08-21T14:53:11;9.50;;;5.15;;
36931;SDS011;22847;42.654;23.370;2022-08-21T14:55:37;12.07;;;5.85;;
36931;SDS011;22847;42.654;23.370;2022-08-21T14:58:22;15.70;;;6.05;;
36931;SDS011;22847;42.654;23.370;2022-08-21T15:00:50;11.27;;;8.20;;
36931;SDS011;22847;42.654;23.370;2022-08-21T15:03:17;15.95;;;8.82;;
36931;SDS011;22847;42.654;23.370;2022-08-21T15:05:42;11.68;;;5.80;;
36931;SDS011;22847;42.654;23.370;2022-08-21T15:08:08;10.88;;;5.15;;
36931;SDS011;22847;42.654;23.370;2022-08-21T15:10:34;12.57;;;6.95;;
36931;SDS011;22847;42.654;23.370;2022-08-21T15:13:00;11.85;;;6.13;;
36931;SDS011;22847;42.654;23.370;2022-08-21T15:15:26;11.45;;;5.93;;
36931;SDS011;22847;42.654;23.370;2022-08-21T15:17:54;10.13;;;5.57;;
36931;SDS011;22847;42.654;23.370;2022-08-21T15:20:19;16.08;;;5.70;;
36931;SDS011;22847;42.654;23.370;2022-08-21T15:22:45;9.88;;;5.57;;
36931;SDS011;22847;42.654;23.370;2022-08-21T15:25:10;12.13;;;6.03;;
36931;SDS011;22847;42.654;23.370;2022-08-21T15:27:35;10.77;;;5.93;;
36931;SDS011;22847;42.654;23.370;2022-08-21T15:30:02;14.43;;;5.88;;
36931;SDS011;22847;42.654;23.370;2022-08-21T15:32:30;13.60;;;6.43;;
36931;SDS011;22847;42.654;23.370;2022-08-21T15:34:57;15.43;;;6.68;;
36931;SDS011;22847;42.654;23.370;2022-08-21T15:37:24;16.05;;;6.70;;
36931;SDS011;22847;42.654;23.370;2022-08-21T15:39:50;14.70;;;6.57;;
36931;SDS011;22847;42.654;23.370;2022-08-21T15:42:17;12.43;;;6.85;;
36931;SDS011;22847;42.654;23.370;2022-08-21T15:44:44;9.80;;;6.45;;
36931;SDS011;22847;42.654;23.370;2022-08-21T15:47:15;12.13;;;6.18;;
36931;SDS011;22847;42.654;23.370;2022-08-21T15:49:43;12.07;;;6.53;;
36931;SDS011;22847;42.654;23.370;2022-08-21T15:52:11;14.30;;;6.88;;
36931;SDS011;22847;42.654;23.370;2022-08-21T15:54:37;13.50;;;6.80;;
36931;SDS011;22847;42.654;23.370;2022-08-21T15:57:03;9.95;;;6.57;;